createdAt,value
2023-02-26T00:00:41.909Z,1010.55
2023-02-26T00:01:41.990Z,1010.57
2023-02-26T00:02:41.933Z,1010.60
2023-02-26T00:03:41.945Z,1010.59
2023-02-26T00:04:41.963Z,1010.67
2023-02-26T00:05:41.975Z,1010.70
2023-02-26T00:06:41.993Z,1010.62
2023-02-26T00:07:42.005Z,1010.66
2023-02-26T00:08:42.025Z,1010.59
2023-02-26T00:09:42.035Z,1010.65
2023-02-26T00:10:42.050Z,1010.69
2023-02-26T00:11:42.107Z,1010.68
2023-02-26T00:12:42.083Z,1010.70
2023-02-26T00:13:42.107Z,1010.70
2023-02-26T00:14:42.114Z,1010.73
2023-02-26T00:15:42.129Z,1010.75
2023-02-26T00:16:42.194Z,1010.76
2023-02-26T00:17:42.165Z,1010.75
2023-02-26T00:18:42.169Z,1010.79
2023-02-26T00:19:42.184Z,1010.77
2023-02-26T00:20:42.199Z,1010.80
2023-02-26T00:21:42.214Z,1010.86
2023-02-26T00:22:42.228Z,1010.84
2023-02-26T00:23:42.249Z,1010.87
2023-02-26T00:24:42.264Z,1010.89
2023-02-26T00:25:42.276Z,1010.89
2023-02-26T00:26:42.293Z,1010.90
2023-02-26T00:27:42.300Z,1010.91
2023-02-26T00:28:42.321Z,1010.94
2023-02-26T00:29:42.335Z,1010.96
2023-02-26T00:30:42.371Z,1010.93
2023-02-26T00:31:42.402Z,1010.97
2023-02-26T00:32:42.418Z,1010.96
2023-02-26T00:33:42.392Z,1010.96
2023-02-26T00:34:42.409Z,1010.98
2023-02-26T00:35:42.421Z,1011.01
2023-02-26T00:36:42.435Z,1011.05
2023-02-26T00:37:42.450Z,1011.05
2023-02-26T00:38:42.470Z,1011.03
2023-02-26T00:39:42.499Z,1011.08
2023-02-26T00:40:42.509Z,1011.10
2023-02-26T00:41:42.545Z,1011.10
2023-02-26T00:42:42.530Z,1011.12
2023-02-26T00:43:42.537Z,1011.13
2023-02-26T00:44:42.554Z,1011.14
2023-02-26T00:45:42.601Z,1011.20
2023-02-26T00:46:42.594Z,1011.13
2023-02-26T00:47:42.598Z,1011.19
2023-02-26T00:48:42.621Z,1011.17
2023-02-26T00:49:42.632Z,1011.15
2023-02-26T00:50:42.644Z,1011.18
2023-02-26T00:51:42.674Z,1011.21
2023-02-26T00:52:42.672Z,1011.21
2023-02-26T00:53:42.698Z,1011.27
2023-02-26T00:54:42.710Z,1011.25
2023-02-26T00:55:42.719Z,1011.24
2023-02-26T00:56:42.732Z,1011.27
2023-02-26T00:57:42.748Z,1011.30
2023-02-26T00:58:42.762Z,1011.32
2023-02-26T00:59:42.789Z,1011.37
2023-02-26T01:00:42.795Z,1011.38
2023-02-26T01:01:42.837Z,1011.39
2023-02-26T01:02:42.820Z,1011.42
2023-02-26T01:03:42.862Z,1011.36
2023-02-26T01:04:42.850Z,1011.38
2023-02-26T01:05:42.865Z,1011.36
2023-02-26T01:06:42.904Z,1011.37
2023-02-26T01:07:42.897Z,1011.38
2023-02-26T01:08:42.917Z,1011.39
2023-02-26T01:09:42.922Z,1011.41
2023-02-26T01:10:42.939Z,1011.42
2023-02-26T01:11:42.950Z,1011.42
2023-02-26T01:12:42.971Z,1011.47
2023-02-26T01:13:42.983Z,1011.41
2023-02-26T01:14:43.001Z,1011.39
2023-02-26T01:15:43.024Z,1011.42
2023-02-26T01:16:43.025Z,1011.40
2023-02-26T01:17:43.039Z,1011.40
2023-02-26T01:18:43.055Z,1011.42
2023-02-26T01:19:43.075Z,1011.47
2023-02-26T01:20:43.092Z,1011.50
2023-02-26T01:21:43.100Z,1011.46
2023-02-26T01:22:43.119Z,1011.51
2023-02-26T01:23:43.127Z,1011.52
2023-02-26T01:24:43.144Z,1011.49
2023-02-26T01:25:43.159Z,1011.52
2023-02-26T01:26:43.173Z,1011.49
2023-02-26T01:27:43.183Z,1011.51
2023-02-26T01:28:43.200Z,1011.52
2023-02-26T01:29:43.220Z,1011.49
2023-02-26T01:30:43.307Z,1011.54
2023-02-26T01:31:43.444Z,1011.55
2023-02-26T01:32:43.441Z,1011.58
2023-02-26T01:33:43.273Z,1011.58
2023-02-26T01:34:43.310Z,1011.54
2023-02-26T01:35:43.308Z,1011.59
2023-02-26T01:36:43.321Z,1011.60
2023-02-26T01:37:43.336Z,1011.56
2023-02-26T01:38:43.351Z,1011.55
2023-02-26T01:39:43.365Z,1011.59
2023-02-26T01:40:43.375Z,1011.59
2023-02-26T01:41:43.390Z,1011.54
2023-02-26T01:42:43.409Z,1011.55
2023-02-26T01:43:43.423Z,1011.58
2023-02-26T01:44:43.435Z,1011.57
2023-02-26T01:45:43.469Z,1011.59
2023-02-26T01:46:43.540Z,1011.63
2023-02-26T01:47:43.482Z,1011.61
2023-02-26T01:48:43.496Z,1011.61
2023-02-26T01:49:43.524Z,1011.63
2023-02-26T01:50:43.525Z,1011.63
2023-02-26T01:51:43.539Z,1011.62
2023-02-26T01:52:43.555Z,1011.63
2023-02-26T01:53:43.582Z,1011.63
2023-02-26T01:54:43.594Z,1011.62
2023-02-26T01:55:43.614Z,1011.66
2023-02-26T01:56:43.609Z,1011.72
2023-02-26T01:57:43.632Z,1011.75
2023-02-26T01:58:43.644Z,1011.73
2023-02-26T01:59:43.664Z,1011.71
2023-02-26T02:00:43.673Z,1011.70
2023-02-26T02:01:43.690Z,1011.71
2023-02-26T02:02:43.835Z,1011.73
2023-02-26T02:03:43.796Z,1011.76
2023-02-26T02:04:43.748Z,1011.76
2023-02-26T02:05:43.767Z,1011.73
2023-02-26T02:06:43.762Z,1011.74
2023-02-26T02:07:43.778Z,1011.75
2023-02-26T02:08:43.795Z,1011.74
2023-02-26T02:09:43.810Z,1011.72
2023-02-26T02:10:43.823Z,1011.78
2023-02-26T02:11:43.838Z,1011.85
2023-02-26T02:12:43.847Z,1011.85
2023-02-26T02:13:43.865Z,1011.87
2023-02-26T02:14:43.880Z,1011.88
2023-02-26T02:15:43.894Z,1011.84
2023-02-26T02:16:44.010Z,1011.85
2023-02-26T02:17:43.925Z,1011.83
2023-02-26T02:18:43.941Z,1011.83
2023-02-26T02:19:43.952Z,1011.80
2023-02-26T02:20:43.967Z,1011.82
2023-02-26T02:21:43.980Z,1011.83
2023-02-26T02:22:43.995Z,1011.79
2023-02-26T02:23:44.013Z,1011.84
2023-02-26T02:24:44.025Z,1011.84
2023-02-26T02:25:44.043Z,1011.83
2023-02-26T02:26:44.072Z,1011.84
2023-02-26T02:27:44.077Z,1011.81
2023-02-26T02:28:44.081Z,1011.84
2023-02-26T02:29:44.099Z,1011.83
2023-02-26T02:30:44.113Z,1011.85
2023-02-26T02:31:44.268Z,1011.89
2023-02-26T02:32:44.216Z,1011.89
2023-02-26T02:33:44.192Z,1011.91
2023-02-26T02:34:44.168Z,1011.89
2023-02-26T02:35:44.182Z,1011.90
2023-02-26T02:36:44.198Z,1011.95
2023-02-26T02:37:44.216Z,1012.00
2023-02-26T02:38:44.230Z,1011.96
2023-02-26T02:39:44.242Z,1011.99
2023-02-26T02:40:44.265Z,1012.01
2023-02-26T02:41:44.269Z,1012.03
2023-02-26T02:42:44.304Z,1012.06
2023-02-26T02:43:44.299Z,1012.10
2023-02-26T02:44:44.316Z,1012.05
2023-02-26T02:45:44.462Z,1012.10
2023-02-26T02:46:44.379Z,1012.08
2023-02-26T02:47:44.354Z,1012.11
2023-02-26T02:48:44.373Z,1012.16
2023-02-26T02:49:44.391Z,1012.16
2023-02-26T02:50:44.411Z,1012.16
2023-02-26T02:51:44.414Z,1012.19
2023-02-26T02:52:44.436Z,1012.16
2023-02-26T02:53:44.448Z,1012.16
2023-02-26T02:54:44.461Z,1012.17
2023-02-26T02:55:44.475Z,1012.22
2023-02-26T02:56:44.491Z,1012.26
2023-02-26T02:57:44.509Z,1012.27
2023-02-26T02:58:44.519Z,1012.34
2023-02-26T02:59:44.544Z,1012.35
2023-02-26T03:00:44.605Z,1012.36
2023-02-26T03:01:44.569Z,1012.32
2023-02-26T03:02:44.611Z,1012.33
2023-02-26T03:03:44.592Z,1012.35
2023-02-26T03:04:44.623Z,1012.38
2023-02-26T03:05:44.620Z,1012.39
2023-02-26T03:06:44.634Z,1012.36
2023-02-26T03:07:44.652Z,1012.35
2023-02-26T03:08:44.664Z,1012.34
2023-02-26T03:09:44.679Z,1012.35
2023-02-26T03:10:44.694Z,1012.36
2023-02-26T03:11:44.706Z,1012.36
2023-02-26T03:12:44.727Z,1012.35
2023-02-26T03:13:44.744Z,1012.40
2023-02-26T03:14:44.751Z,1012.42
2023-02-26T03:15:44.791Z,1012.45
2023-02-26T03:16:44.803Z,1012.51
2023-02-26T03:17:44.800Z,1012.50
2023-02-26T03:18:44.806Z,1012.55
2023-02-26T03:19:44.823Z,1012.57
2023-02-26T03:20:44.838Z,1012.58
2023-02-26T03:21:44.857Z,1012.53
2023-02-26T03:22:44.865Z,1012.56
2023-02-26T03:23:44.883Z,1012.62
2023-02-26T03:24:44.896Z,1012.60
2023-02-26T03:25:44.925Z,1012.65
2023-02-26T03:26:44.932Z,1012.66
2023-02-26T03:27:44.944Z,1012.66
2023-02-26T03:28:44.957Z,1012.66
2023-02-26T03:29:44.972Z,1012.69
2023-02-26T03:30:45.024Z,1012.71
2023-02-26T03:31:45.080Z,1012.70
2023-02-26T03:32:45.049Z,1012.73
2023-02-26T03:33:45.048Z,1012.74
2023-02-26T03:34:45.043Z,1012.78
2023-02-26T03:35:45.069Z,1012.82
2023-02-26T03:36:45.070Z,1012.81
2023-02-26T03:37:45.093Z,1012.84
2023-02-26T03:38:45.105Z,1012.80
2023-02-26T03:39:45.122Z,1012.86
2023-02-26T03:40:45.146Z,1012.88
2023-02-26T03:41:45.143Z,1012.89
2023-02-26T03:42:45.162Z,1012.92
2023-02-26T03:43:45.170Z,1012.89
2023-02-26T03:44:45.188Z,1012.94
2023-02-26T03:45:45.260Z,1012.98
2023-02-26T03:46:45.225Z,1013.01
2023-02-26T03:47:45.230Z,1013.03
2023-02-26T03:48:45.274Z,1012.99
2023-02-26T03:49:45.292Z,1013.03
2023-02-26T03:50:45.274Z,1013.06
2023-02-26T03:51:45.287Z,1013.04
2023-02-26T03:52:45.301Z,1013.05
2023-02-26T03:53:45.323Z,1013.05
2023-02-26T03:54:45.351Z,1013.08
2023-02-26T03:55:45.356Z,1013.06
2023-02-26T03:56:45.353Z,1013.05
2023-02-26T03:57:45.387Z,1013.11
2023-02-26T03:58:45.411Z,1013.14
2023-02-26T03:59:45.402Z,1013.14
2023-02-26T04:00:45.414Z,1013.14
2023-02-26T04:01:45.430Z,1013.21
2023-02-26T04:02:45.445Z,1013.23
2023-02-26T04:03:45.466Z,1013.20
2023-02-26T04:04:45.473Z,1013.24
2023-02-26T04:05:45.486Z,1013.20
2023-02-26T04:06:45.500Z,1013.26
2023-02-26T04:07:45.530Z,1013.23
2023-02-26T04:08:45.531Z,1013.21
2023-02-26T04:09:45.544Z,1013.24
2023-02-26T04:10:45.559Z,1013.27
2023-02-26T04:11:45.581Z,1013.28
2023-02-26T04:12:45.593Z,1013.29
2023-02-26T04:13:45.611Z,1013.29
2023-02-26T04:14:45.613Z,1013.29
2023-02-26T04:15:45.638Z,1013.29
2023-02-26T04:16:45.650Z,1013.34
2023-02-26T04:17:45.683Z,1013.34
2023-02-26T04:18:45.669Z,1013.32
2023-02-26T04:19:45.695Z,1013.34
2023-02-26T04:20:45.701Z,1013.34
2023-02-26T04:21:45.732Z,1013.36
2023-02-26T04:22:45.731Z,1013.41
2023-02-26T04:23:45.740Z,1013.38
2023-02-26T04:24:45.756Z,1013.40
2023-02-26T04:25:45.771Z,1013.47
2023-02-26T04:26:45.783Z,1013.43
2023-02-26T04:27:45.795Z,1013.50
2023-02-26T04:28:45.808Z,1013.49
2023-02-26T04:29:45.824Z,1013.51
2023-02-26T04:30:45.870Z,1013.54
2023-02-26T04:31:45.981Z,1013.58
2023-02-26T04:32:45.864Z,1013.53
2023-02-26T04:33:45.880Z,1013.59
2023-02-26T04:34:45.908Z,1013.61
2023-02-26T04:35:45.907Z,1013.64
2023-02-26T04:36:45.920Z,1013.66
2023-02-26T04:37:45.933Z,1013.63
2023-02-26T04:38:45.947Z,1013.62
2023-02-26T04:39:45.963Z,1013.70
2023-02-26T04:40:45.975Z,1013.64
2023-02-26T04:41:45.992Z,1013.64
2023-02-26T04:42:47.476Z,1013.65
2023-02-26T04:43:46.016Z,1013.68
2023-02-26T04:44:46.039Z,1013.71
2023-02-26T04:45:46.052Z,1013.67
2023-02-26T04:46:46.067Z,1013.72
2023-02-26T04:47:46.075Z,1013.75
2023-02-26T04:48:46.088Z,1013.73
2023-02-26T04:49:46.119Z,1013.74
2023-02-26T04:50:46.116Z,1013.75
2023-02-26T04:51:46.180Z,1013.75
2023-02-26T04:52:46.140Z,1013.77
2023-02-26T04:53:46.154Z,1013.81
2023-02-26T04:54:46.167Z,1013.78
2023-02-26T04:55:46.181Z,1013.78
2023-02-26T04:56:46.196Z,1013.80
2023-02-26T04:57:46.210Z,1013.85
2023-02-26T04:58:46.228Z,1013.80
2023-02-26T04:59:46.246Z,1013.84
2023-02-26T05:00:46.252Z,1013.86
2023-02-26T05:01:46.298Z,1013.88
2023-02-26T05:02:46.290Z,1013.89
2023-02-26T05:03:46.292Z,1013.89
2023-02-26T05:04:46.404Z,1013.91
2023-02-26T05:05:46.328Z,1013.91
2023-02-26T05:06:46.338Z,1013.94
2023-02-26T05:07:46.352Z,1013.94
2023-02-26T05:08:46.365Z,1013.96
2023-02-26T05:09:46.380Z,1013.99
2023-02-26T05:10:46.408Z,1013.97
2023-02-26T05:11:46.405Z,1013.98
2023-02-26T05:12:46.428Z,1014.03
2023-02-26T05:13:46.437Z,1014.00
2023-02-26T05:14:46.450Z,1014.04
2023-02-26T05:15:46.488Z,1014.02
2023-02-26T05:16:46.483Z,1014.07
2023-02-26T05:17:46.496Z,1014.09
2023-02-26T05:18:46.508Z,1014.08
2023-02-26T05:19:46.526Z,1014.08
2023-02-26T05:20:46.535Z,1014.06
2023-02-26T05:21:46.549Z,1014.13
2023-02-26T05:22:46.572Z,1014.14
2023-02-26T05:23:46.577Z,1014.14
2023-02-26T05:24:46.590Z,1014.15
2023-02-26T05:25:46.608Z,1014.18
2023-02-26T05:26:46.621Z,1014.15
2023-02-26T05:27:46.633Z,1014.18
2023-02-26T05:28:46.705Z,1014.18
2023-02-26T05:29:46.659Z,1014.22
2023-02-26T05:30:46.726Z,1014.23
2023-02-26T05:31:46.879Z,1014.29
2023-02-26T05:32:46.704Z,1014.24
2023-02-26T05:33:46.718Z,1014.29
2023-02-26T05:34:46.736Z,1014.27
2023-02-26T05:35:46.749Z,1014.31
2023-02-26T05:36:46.758Z,1014.28
2023-02-26T05:37:46.774Z,1014.28
2023-02-26T05:38:46.788Z,1014.30
2023-02-26T05:39:46.806Z,1014.30
2023-02-26T05:40:46.812Z,1014.29
2023-02-26T05:41:46.835Z,1014.33
2023-02-26T05:42:46.848Z,1014.33
2023-02-26T05:43:46.856Z,1014.33
2023-02-26T05:44:46.894Z,1014.37
2023-02-26T05:45:46.884Z,1014.39
2023-02-26T05:46:46.943Z,1014.41
2023-02-26T05:47:46.913Z,1014.39
2023-02-26T05:48:46.924Z,1014.44
2023-02-26T05:49:46.941Z,1014.44
2023-02-26T05:50:46.957Z,1014.46
2023-02-26T05:51:46.965Z,1014.50
2023-02-26T05:52:46.981Z,1014.50
2023-02-26T05:53:47.001Z,1014.51
2023-02-26T05:54:47.012Z,1014.54
2023-02-26T05:55:47.023Z,1014.58
2023-02-26T05:56:47.057Z,1014.62
2023-02-26T05:57:47.051Z,1014.64
2023-02-26T05:58:47.073Z,1014.67
2023-02-26T05:59:47.079Z,1014.68
2023-02-26T06:00:47.090Z,1014.65
2023-02-26T06:01:47.177Z,1014.74
2023-02-26T06:02:47.163Z,1014.77
2023-02-26T06:03:47.137Z,1014.83
2023-02-26T06:04:47.146Z,1014.78
2023-02-26T06:05:47.177Z,1014.86
2023-02-26T06:06:47.170Z,1014.84
2023-02-26T06:07:47.616Z,1014.88
2023-02-26T06:08:47.199Z,1014.93
2023-02-26T06:09:47.212Z,1014.95
2023-02-26T06:10:47.229Z,1014.93
2023-02-26T06:11:47.246Z,1014.96
2023-02-26T06:12:47.254Z,1014.98
2023-02-26T06:13:47.273Z,1014.99
2023-02-26T06:14:47.288Z,1015.00
2023-02-26T06:15:47.296Z,1015.00
2023-02-26T06:16:47.367Z,1015.03
2023-02-26T06:17:47.323Z,1015.08
2023-02-26T06:18:47.340Z,1015.08
2023-02-26T06:19:47.351Z,1015.10
2023-02-26T06:20:47.392Z,1015.11
2023-02-26T06:21:47.384Z,1015.16
2023-02-26T06:22:47.392Z,1015.20
2023-02-26T06:23:47.412Z,1015.17
2023-02-26T06:24:47.420Z,1015.19
2023-02-26T06:25:47.441Z,1015.21
2023-02-26T06:26:47.450Z,1015.20
2023-02-26T06:27:47.461Z,1015.25
2023-02-26T06:28:47.477Z,1015.27
2023-02-26T06:29:47.492Z,1015.29
2023-02-26T06:30:47.632Z,1015.31
2023-02-26T06:31:47.727Z,1015.34
2023-02-26T06:32:47.653Z,1015.35
2023-02-26T06:33:47.550Z,1015.37
2023-02-26T06:34:47.584Z,1015.41
2023-02-26T06:35:47.590Z,1015.42
2023-02-26T06:36:47.598Z,1015.48
2023-02-26T06:37:47.607Z,1015.48
2023-02-26T06:38:47.618Z,1015.48
2023-02-26T06:39:47.635Z,1015.49
2023-02-26T06:40:47.651Z,1015.51
2023-02-26T06:41:47.666Z,1015.53
2023-02-26T06:42:47.679Z,1015.54
2023-02-26T06:43:47.691Z,1015.53
2023-02-26T06:44:47.703Z,1015.55
2023-02-26T06:45:47.819Z,1015.58
2023-02-26T06:46:47.735Z,1015.60
2023-02-26T06:47:47.756Z,1015.61
2023-02-26T06:48:47.765Z,1015.64
2023-02-26T06:49:47.775Z,1015.62
2023-02-26T06:50:47.791Z,1015.64
2023-02-26T06:51:47.803Z,1015.67
2023-02-26T06:52:47.816Z,1015.73
2023-02-26T06:53:47.843Z,1015.71
2023-02-26T06:54:47.845Z,1015.75
2023-02-26T06:55:47.856Z,1015.74
2023-02-26T06:56:47.872Z,1015.73
2023-02-26T06:57:47.888Z,1015.78
2023-02-26T06:58:47.901Z,1015.78
2023-02-26T06:59:47.955Z,1015.78
2023-02-26T07:00:47.955Z,1015.79
2023-02-26T07:01:47.945Z,1015.82
2023-02-26T07:02:47.957Z,1015.84
2023-02-26T07:03:47.980Z,1015.86
2023-02-26T07:04:47.983Z,1015.90
2023-02-26T07:05:48.030Z,1015.88
2023-02-26T07:06:48.018Z,1015.89
2023-02-26T07:07:48.025Z,1015.90
2023-02-26T07:08:48.076Z,1015.92
2023-02-26T07:09:48.053Z,1015.93
2023-02-26T07:10:48.076Z,1015.91
2023-02-26T07:11:48.091Z,1015.90
2023-02-26T07:12:48.093Z,1015.94
2023-02-26T07:13:48.124Z,1015.98
2023-02-26T07:14:48.130Z,1016.01
2023-02-26T07:15:48.146Z,1016.01
2023-02-26T07:16:48.176Z,1016.02
2023-02-26T07:17:48.165Z,1016.05
2023-02-26T07:18:48.183Z,1016.08
2023-02-26T07:19:48.196Z,1016.12
2023-02-26T07:20:48.206Z,1016.16
2023-02-26T07:21:48.223Z,1016.13
2023-02-26T07:22:48.238Z,1016.09
2023-02-26T07:23:48.246Z,1016.15
2023-02-26T07:24:48.269Z,1016.08
2023-02-26T07:25:48.280Z,1016.11
2023-02-26T07:26:48.294Z,1016.13
2023-02-26T07:27:48.307Z,1016.15
2023-02-26T07:28:48.328Z,1016.11
2023-02-26T07:29:48.336Z,1016.15
2023-02-26T07:30:48.458Z,1016.14
2023-02-26T07:31:48.503Z,1016.18
2023-02-26T07:32:48.380Z,1016.15
2023-02-26T07:33:48.406Z,1016.16
2023-02-26T07:34:48.418Z,1016.20
2023-02-26T07:35:48.433Z,1016.22
2023-02-26T07:36:48.610Z,1016.21
2023-02-26T07:37:48.451Z,1016.20
2023-02-26T07:38:48.472Z,1016.21
2023-02-26T07:39:48.972Z,1016.17
2023-02-26T07:40:48.495Z,1016.22
2023-02-26T07:41:48.511Z,1016.22
2023-02-26T07:42:48.873Z,1016.23
2023-02-26T07:43:48.543Z,1016.27
2023-02-26T07:44:48.560Z,1016.31
2023-02-26T07:45:48.599Z,1016.29
2023-02-26T07:46:48.580Z,1016.36
2023-02-26T07:47:48.593Z,1016.38
2023-02-26T07:48:48.621Z,1016.42
2023-02-26T07:49:48.640Z,1016.42
2023-02-26T07:50:48.641Z,1016.42
2023-02-26T07:51:48.661Z,1016.44
2023-02-26T07:52:48.702Z,1016.48
2023-02-26T07:53:48.688Z,1016.51
2023-02-26T07:54:48.699Z,1016.54
2023-02-26T07:55:48.712Z,1016.53
2023-02-26T07:56:48.728Z,1016.71
2023-02-26T07:57:48.740Z,1016.59
2023-02-26T07:58:48.777Z,1016.61
2023-02-26T07:59:48.770Z,1016.62
2023-02-26T08:00:48.791Z,1016.68
2023-02-26T08:01:48.855Z,1016.65
2023-02-26T08:02:48.822Z,1016.68
2023-02-26T08:03:48.843Z,1016.71
2023-02-26T08:04:48.847Z,1016.69
2023-02-26T08:05:48.863Z,1016.70
2023-02-26T08:06:48.887Z,1016.71
2023-02-26T08:07:48.898Z,1016.73
2023-02-26T08:08:48.905Z,1016.72
2023-02-26T08:09:48.921Z,1016.73
2023-02-26T08:10:48.939Z,1016.74
2023-02-26T08:11:48.952Z,1016.77
2023-02-26T08:12:48.966Z,1016.82
2023-02-26T08:13:48.985Z,1016.81
2023-02-26T08:14:49.000Z,1016.81
2023-02-26T08:15:49.035Z,1016.83
2023-02-26T08:16:49.035Z,1016.83
2023-02-26T08:17:49.043Z,1016.87
2023-02-26T08:18:49.058Z,1016.90
2023-02-26T08:19:49.073Z,1016.88
2023-02-26T08:20:49.087Z,1016.86
2023-02-26T08:21:50.618Z,1016.87
2023-02-26T08:22:49.121Z,1016.87
2023-02-26T08:23:49.132Z,1016.92
2023-02-26T08:24:49.158Z,1016.86
2023-02-26T08:25:49.175Z,1016.91
2023-02-26T08:26:49.183Z,1016.92
2023-02-26T08:27:49.268Z,1016.96
2023-02-26T08:28:49.213Z,1016.96
2023-02-26T08:29:49.225Z,1016.97
2023-02-26T08:30:49.312Z,1016.97
2023-02-26T08:31:49.378Z,1017.00
2023-02-26T08:32:49.270Z,1017.00
2023-02-26T08:33:49.287Z,1017.00
2023-02-26T08:34:49.302Z,1017.08
2023-02-26T08:35:49.318Z,1017.05
2023-02-26T08:36:49.335Z,1017.09
2023-02-26T08:37:49.352Z,1017.12
2023-02-26T08:38:49.372Z,1017.11
2023-02-26T08:39:49.381Z,1017.19
2023-02-26T08:40:49.396Z,1017.19
2023-02-26T08:41:49.490Z,1017.17
2023-02-26T08:42:49.427Z,1017.19
2023-02-26T08:43:49.441Z,1017.15
2023-02-26T08:44:49.478Z,1017.16
2023-02-26T08:45:49.474Z,1017.23
2023-02-26T08:46:49.620Z,1017.28
2023-02-26T08:47:56.614Z,1017.29
2023-02-26T08:48:49.517Z,1017.33
2023-02-26T08:49:49.540Z,1017.31
2023-02-26T08:50:49.554Z,1017.35
2023-02-26T08:51:49.569Z,1017.34
2023-02-26T08:52:49.593Z,1017.36
2023-02-26T08:53:49.600Z,1017.33
2023-02-26T08:54:49.620Z,1017.39
2023-02-26T08:55:49.632Z,1017.38
2023-02-26T08:56:49.671Z,1017.43
2023-02-26T08:57:49.658Z,1017.39
2023-02-26T08:58:49.679Z,1017.38
2023-02-26T08:59:49.698Z,1017.42
2023-02-26T09:00:49.723Z,1017.47
2023-02-26T09:01:49.824Z,1017.46
2023-02-26T09:02:49.773Z,1017.47
2023-02-26T09:03:49.769Z,1017.48
2023-02-26T09:04:49.779Z,1017.50
2023-02-26T09:05:49.791Z,1017.49
2023-02-26T09:06:49.806Z,1017.46
2023-02-26T09:07:49.822Z,1017.50
2023-02-26T09:08:49.840Z,1017.52
2023-02-26T09:09:49.858Z,1017.56
2023-02-26T09:10:49.873Z,1017.57
2023-02-26T09:11:49.886Z,1017.58
2023-02-26T09:12:49.905Z,1017.62
2023-02-26T09:13:49.937Z,1017.63
2023-02-26T09:14:49.935Z,1017.67
2023-02-26T09:15:49.953Z,1017.69
2023-02-26T09:16:51.225Z,1017.67
2023-02-26T09:17:49.985Z,1017.76
2023-02-26T09:18:50.001Z,1017.71
2023-02-26T09:19:50.015Z,1017.77
2023-02-26T09:20:50.032Z,1017.74
2023-02-26T09:21:50.047Z,1017.74
2023-02-26T09:22:50.064Z,1017.78
2023-02-26T09:23:50.081Z,1017.83
2023-02-26T09:24:50.136Z,1017.85
2023-02-26T09:25:50.114Z,1017.85
2023-02-26T09:26:50.128Z,1017.85
2023-02-26T09:27:50.144Z,1017.90
2023-02-26T09:28:50.162Z,1017.88
2023-02-26T09:29:50.176Z,1017.90
2023-02-26T09:30:50.221Z,1017.93
2023-02-26T09:31:50.271Z,1017.98
2023-02-26T09:32:50.256Z,1018.07
2023-02-26T09:33:50.254Z,1017.95
2023-02-26T09:34:50.257Z,1018.03
2023-02-26T09:35:50.276Z,1017.97
2023-02-26T09:36:50.292Z,1018.11
2023-02-26T09:37:50.307Z,1017.99
2023-02-26T09:38:50.324Z,1018.02
2023-02-26T09:39:50.340Z,1018.04
2023-02-26T09:40:50.358Z,1018.05
2023-02-26T09:41:50.377Z,1018.14
2023-02-26T09:42:50.389Z,1018.09
2023-02-26T09:43:50.414Z,1018.07
2023-02-26T09:44:50.424Z,1018.25
2023-02-26T09:45:50.474Z,1018.17
2023-02-26T09:46:50.457Z,1018.04
2023-02-26T09:47:50.471Z,1018.07
2023-02-26T09:48:50.486Z,1018.15
2023-02-26T09:49:50.502Z,1018.12
2023-02-26T09:50:50.520Z,1018.24
2023-02-26T09:51:50.545Z,1018.13
2023-02-26T09:52:50.596Z,1018.09
2023-02-26T09:53:50.589Z,1018.19
2023-02-26T09:54:50.592Z,1018.12
2023-02-26T09:55:50.616Z,1018.07
2023-02-26T09:56:50.622Z,1018.08
2023-02-26T09:57:50.641Z,1018.20
2023-02-26T09:58:50.657Z,1018.18
2023-02-26T09:59:50.672Z,1018.21
2023-02-26T10:00:50.692Z,1018.15
2023-02-26T10:01:50.842Z,1018.19
2023-02-26T10:02:50.736Z,1018.17
2023-02-26T10:03:50.787Z,1018.22
2023-02-26T10:04:50.763Z,1018.25
2023-02-26T10:05:50.776Z,1018.18
2023-02-26T10:06:50.792Z,1018.25
2023-02-26T10:07:50.809Z,1018.28
2023-02-26T10:08:50.827Z,1018.29
2023-02-26T10:09:50.842Z,1018.26
2023-02-26T10:10:50.860Z,1018.31
2023-02-26T10:11:50.889Z,1018.30
2023-02-26T10:12:50.892Z,1018.28
2023-02-26T10:13:57.492Z,1018.30
2023-02-26T10:14:50.926Z,1018.43
2023-02-26T10:15:50.943Z,1018.37
2023-02-26T10:16:51.072Z,1018.40
2023-02-26T10:17:50.978Z,1018.35
2023-02-26T10:18:50.994Z,1018.27
2023-02-26T10:19:51.011Z,1018.37
2023-02-26T10:20:51.091Z,1018.34
2023-02-26T10:21:51.069Z,1018.39
2023-02-26T10:22:51.064Z,1018.31
2023-02-26T10:23:51.081Z,1018.33
2023-02-26T10:24:51.301Z,1018.37
2023-02-26T10:25:51.150Z,1018.38
2023-02-26T10:26:51.126Z,1018.37
2023-02-26T10:27:51.143Z,1018.57
2023-02-26T10:28:51.164Z,1018.63
2023-02-26T10:29:51.175Z,1018.37
2023-02-26T10:30:51.210Z,1018.38
2023-02-26T10:31:51.251Z,1018.62
2023-02-26T10:32:51.279Z,1018.48
2023-02-26T10:33:51.250Z,1018.66
2023-02-26T10:34:51.252Z,1018.50
2023-02-26T10:35:51.274Z,1018.51
2023-02-26T10:36:51.288Z,1018.46
2023-02-26T10:37:51.310Z,1018.53
2023-02-26T10:38:51.320Z,1018.45
2023-02-26T10:39:51.345Z,1018.50
2023-02-26T10:40:51.356Z,1018.49
2023-02-26T10:41:51.384Z,1018.51
2023-02-26T10:42:51.388Z,1018.53
2023-02-26T10:43:51.405Z,1018.49
2023-02-26T10:44:51.452Z,1018.62
2023-02-26T10:45:51.461Z,1018.61
2023-02-26T10:46:51.457Z,1018.56
2023-02-26T10:47:51.479Z,1018.57
2023-02-26T10:48:51.523Z,1018.59
2023-02-26T10:49:51.509Z,1018.63
2023-02-26T10:50:51.526Z,1018.74
2023-02-26T10:51:51.542Z,1018.56
2023-02-26T10:52:51.562Z,1018.65
2023-02-26T10:53:51.577Z,1018.59
2023-02-26T10:54:51.627Z,1018.62
2023-02-26T10:55:51.611Z,1018.71
2023-02-26T10:56:51.628Z,1018.61
2023-02-26T10:57:51.648Z,1018.63
2023-02-26T10:58:51.663Z,1018.64
2023-02-26T10:59:51.680Z,1018.58
2023-02-26T11:00:51.735Z,1018.66
2023-02-26T11:01:51.733Z,1018.71
2023-02-26T11:02:51.742Z,1018.65
2023-02-26T11:03:51.752Z,1018.62
2023-02-26T11:05:02.477Z,1018.65
2023-02-26T11:05:51.788Z,1018.66
2023-02-26T11:06:51.804Z,1018.74
2023-02-26T11:07:51.827Z,1018.74
2023-02-26T11:08:51.841Z,1018.66
2023-02-26T11:09:51.858Z,1018.69
2023-02-26T11:10:51.887Z,1018.66
2023-02-26T11:11:51.896Z,1018.69
2023-02-26T11:12:51.917Z,1018.70
2023-02-26T11:13:51.938Z,1018.66
2023-02-26T11:14:51.948Z,1018.67
2023-02-26T11:15:51.995Z,1018.72
2023-02-26T11:16:51.992Z,1018.69
2023-02-26T11:17:52.005Z,1018.73
2023-02-26T11:18:52.020Z,1018.71
2023-02-26T11:19:52.037Z,1018.67
2023-02-26T11:20:52.056Z,1018.86
2023-02-26T11:21:52.070Z,1018.74
2023-02-26T11:22:52.085Z,1018.69
2023-02-26T11:23:52.180Z,1018.66
2023-02-26T11:24:52.121Z,1018.68
2023-02-26T11:25:52.140Z,1018.75
2023-02-26T11:26:52.156Z,1018.83
2023-02-26T11:27:52.173Z,1018.75
2023-02-26T11:28:52.189Z,1018.69
2023-02-26T11:29:52.210Z,1018.59
2023-02-26T11:30:52.303Z,1018.66
2023-02-26T11:31:52.379Z,1018.66
2023-02-26T11:32:52.261Z,1018.70
2023-02-26T11:33:52.277Z,1018.71
2023-02-26T11:34:52.315Z,1018.64
2023-02-26T11:35:52.313Z,1018.60
2023-02-26T11:36:52.325Z,1018.62
2023-02-26T11:37:52.354Z,1018.58
2023-02-26T11:38:52.358Z,1018.54
2023-02-26T11:39:52.378Z,1018.65
2023-02-26T11:40:52.399Z,1018.70
2023-02-26T11:41:52.405Z,1018.75
2023-02-26T11:42:52.429Z,1018.64
2023-02-26T11:43:52.448Z,1018.70
2023-02-26T11:44:52.467Z,1018.64
2023-02-26T11:45:52.562Z,1018.69
2023-02-26T11:46:52.493Z,1018.66
2023-02-26T11:47:52.512Z,1018.68
2023-02-26T11:48:52.533Z,1018.78
2023-02-26T11:49:52.559Z,1018.61
2023-02-26T11:50:52.580Z,1018.63
2023-02-26T11:51:52.581Z,1018.67
2023-02-26T11:52:52.601Z,1018.60
2023-02-26T11:53:52.620Z,1018.59
2023-02-26T11:54:52.646Z,1018.60
2023-02-26T11:55:52.653Z,1018.58
2023-02-26T11:56:52.668Z,1018.57
2023-02-26T11:57:52.687Z,1018.65
2023-02-26T11:58:55.159Z,1018.68
2023-02-26T11:59:52.728Z,1018.62
2023-02-26T12:00:52.749Z,1018.67
2023-02-26T12:01:52.761Z,1018.67
2023-02-26T12:02:52.817Z,1018.68
2023-02-26T12:03:52.827Z,1018.66
2023-02-26T12:04:52.804Z,1018.63
2023-02-26T12:05:52.825Z,1018.61